Time;durP1;ratioP1;P1;durP2;ratioP2;P2;SDS_P1;SDS_P2;PMS_P1;PMS_P2;Temp;Humidity;BMP_temperature;BMP_pressure;BME280_temperature;BME280_humidity;BME280_pressure;Samples;Min_cycle;Max_cycle;Signal;HPM_P1;HPM_P2
2022/12/13 00:01:40;;;;;;;35.43;24.50;;;-4.20;99.90;;;;;;4996721;28;20553;-68
2022/12/13 00:04:07;;;;;;;42.03;24.33;;;-4.20;99.90;;;;;;4997221;28;20183;-68
2022/12/13 00:06:34;;;;;;;38.40;24.07;;;-4.20;99.90;;;;;;4996717;28;20168;-68
2022/12/13 00:09:00;;;;;;;45.70;26.70;;;-4.20;99.90;;;;;;4996806;28;20173;-69
2022/12/13 00:11:27;;;;;;;39.50;25.10;;;-4.20;99.90;;;;;;5011873;28;20188;-69
2022/12/13 00:13:54;;;;;;;52.90;28.17;;;-4.10;99.90;;;;;;5011655;28;20200;-69
2022/12/13 00:16:21;;;;;;;42.80;25.43;;;-4.20;99.90;;;;;;4996545;28;20259;-68
2022/12/13 00:18:49;;;;;;;41.13;25.97;;;-4.20;99.90;;;;;;5011701;28;20173;-68
2022/12/13 00:21:17;;;;;;;42.53;26.33;;;-4.20;99.90;;;;;;5011509;28;20747;-68
2022/12/13 00:23:44;;;;;;;46.00;26.90;;;-4.30;99.90;;;;;;5011569;28;20208;-69
2022/12/13 00:26:12;;;;;;;36.90;24.47;;;-4.30;99.90;;;;;;4996557;28;20172;-68
2022/12/13 00:28:38;;;;;;;39.67;25.97;;;-4.30;99.90;;;;;;5011266;28;20187;-68
2022/12/13 00:31:04;;;;;;;36.80;22.30;;;-4.30;99.90;;;;;;4996531;28;20578;-68
2022/12/13 00:33:30;;;;;;;36.67;24.30;;;-4.30;99.90;;;;;;4997304;28;20196;-68
2022/12/13 00:35:56;;;;;;;38.20;22.40;;;-4.30;99.90;;;;;;4996524;28;20541;-68
2022/12/13 00:38:23;;;;;;;34.30;23.13;;;-4.30;99.90;;;;;;4997994;28;20180;-68
2022/12/13 00:40:50;;;;;;;37.93;24.07;;;-4.30;99.90;;;;;;5012048;28;20283;-68
2022/12/13 00:43:16;;;;;;;34.10;23.00;;;-4.40;99.90;;;;;;5011044;28;20203;-67
2022/12/13 00:45:42;;;;;;;33.90;22.97;;;-4.40;99.90;;;;;;5010959;28;20647;-68
2022/12/13 00:48:08;;;;;;;38.93;24.13;;;-4.50;99.90;;;;;;4996002;28;20634;-68
2022/12/13 00:50:34;;;;;;;29.63;22.57;;;-4.50;99.90;;;;;;4995982;28;20195;-68
2022/12/13 00:53:01;;;;;;;32.67;22.47;;;-4.40;99.90;;;;;;4995879;28;20699;-68
2022/12/13 00:55:27;;;;;;;35.77;23.60;;;-4.40;99.90;;;;;;5010980;28;20276;-68
2022/12/13 00:57:53;;;;;;;35.60;23.23;;;-4.30;99.90;;;;;;4995898;28;20212;-68
2022/12/13 01:00:20;;;;;;;40.87;24.83;;;-4.40;99.90;;;;;;4995796;28;20607;-68
2022/12/13 01:02:46;;;;;;;40.80;24.27;;;-4.50;99.90;;;;;;5010703;28;20720;-68
2022/12/13 01:05:12;;;;;;;37.03;23.13;;;-4.60;99.90;;;;;;4995087;28;20208;-68
2022/12/13 01:07:38;;;;;;;42.03;23.73;;;-4.70;99.90;;;;;;5010694;28;20203;-68
2022/12/13 01:10:06;;;;;;;41.53;23.47;;;-4.70;99.90;;;;;;5010738;28;20189;-68
2022/12/13 01:12:33;;;;;;;34.73;23.63;;;-4.70;99.90;;;;;;4995525;28;20196;-68
2022/12/13 01:14:59;;;;;;;41.83;25.07;;;-4.70;99.90;;;;;;4995325;28;20172;-68
2022/12/13 01:17:24;;;;;;;38.50;25.17;;;-4.70;99.90;;;;;;4995459;28;20188;-69
2022/12/13 01:19:50;;;;;;;39.57;23.43;;;-4.70;99.90;;;;;;4995804;28;20172;-68
2022/12/13 01:22:17;;;;;;;36.13;24.37;;;-4.70;99.90;;;;;;5010356;28;20303;-68
2022/12/13 01:24:42;;;;;;;36.57;23.70;;;-4.70;99.90;;;;;;4995066;28;20189;-68
2022/12/13 01:27:08;;;;;;;37.70;23.83;;;-4.70;99.90;;;;;;4995139;28;20188;-68
2022/12/13 01:29:35;;;;;;;42.50;26.00;;;-4.70;99.90;;;;;;4994880;28;20218;-68
2022/12/13 01:32:01;;;;;;;34.93;24.83;;;-4.70;99.90;;;;;;4994986;28;20201;-68
2022/12/13 01:34:26;;;;;;;39.37;26.17;;;-4.70;99.90;;;;;;4993791;28;20188;-67
2022/12/13 01:36:53;;;;;;;40.47;26.97;;;-4.80;99.90;;;;;;4995084;28;20258;-68
2022/12/13 01:39:19;;;;;;;40.67;24.73;;;-4.70;99.90;;;;;;4995055;28;20262;-68
2022/12/13 01:41:48;;;;;;;35.10;23.63;;;-4.90;99.90;;;;;;4993594;28;20227;-68
2022/12/13 01:44:51;;;;;;;39.03;23.93;;;-4.90;99.90;;;;;;4994871;28;20537;-68
2022/12/13 01:47:23;;;;;;;38.63;25.20;;;-4.90;99.90;;;;;;4994835;28;20172;-67
2022/12/13 01:49:49;;;;;;;33.57;23.47;;;-4.90;99.90;;;;;;4994817;28;20157;-68
2022/12/13 01:52:16;;;;;;;34.73;23.50;;;-5.00;99.90;;;;;;4993488;28;20200;-68
2022/12/13 01:54:47;;;;;;;36.10;24.07;;;-5.00;99.90;;;;;;4993404;28;20204;-68
2022/12/13 01:57:15;;;;;;;38.20;24.00;;;-5.10;99.90;;;;;;4994517;28;20239;-67
2022/12/13 01:59:43;;;;;;;39.67;24.93;;;-5.20;99.90;;;;;;4994501;28;20658;-68
2022/12/13 02:02:11;;;;;;;33.97;23.57;;;-5.30;99.90;;;;;;4993148;28;20641;-68
2022/12/13 02:04:47;;;;;;;31.67;23.93;;;-5.30;99.90;;;;;;4994408;28;20184;-68
2022/12/13 02:07:17;;;;;;;38.03;24.43;;;-5.30;99.90;;;;;;4995078;28;20161;-68
2022/12/13 02:09:44;;;;;;;37.13;24.77;;;-5.30;99.90;;;;;;4994419;28;20177;-68
2022/12/13 02:12:10;;;;;;;37.50;24.00;;;-5.30;99.90;;;;;;4994361;28;20677;-68
2022/12/13 02:14:36;;;;;;;39.77;25.47;;;-5.30;99.90;;;;;;4992791;28;20184;-68
2022/12/13 02:17:39;;;;;;;39.80;23.37;;;-5.30;99.90;;;;;;4993735;28;20199;-67
2022/12/13 02:20:17;;;;;;;41.97;24.73;;;-5.40;99.90;;;;;;4994310;28;20259;-67
2022/12/13 02:23:01;;;;;;;32.53;23.03;;;-5.40;99.90;;;;;;4994132;28;20739;-68
2022/12/13 02:25:32;;;;;;;37.20;24.13;;;-5.40;99.90;;;;;;4993130;28;20540;-68
2022/12/13 02:28:46;;;;;;;41.63;23.30;;;-5.50;99.90;;;;;;4992764;28;20527;-69
2022/12/13 02:31:32;;;;;;;37.10;23.70;;;-5.60;99.90;;;;;;4958337;28;20193;-68
2022/12/13 02:34:15;;;;;;;33.07;23.10;;;-5.50;99.90;;;;;;4994186;28;20161;-67
2022/12/13 02:37:05;;;;;;;35.73;23.00;;;-5.50;99.90;;;;;;4994190;28;20173;-67
2022/12/13 02:39:35;;;;;;;30.93;22.40;;;-5.40;99.90;;;;;;4994464;28;20677;-67
2022/12/13 02:42:17;;;;;;;33.33;22.10;;;-5.40;99.90;;;;;;4993905;28;20200;-68
2022/12/13 02:44:51;;;;;;;29.70;21.77;;;-5.40;99.90;;;;;;4994020;28;20538;-67
2022/12/13 02:47:22;;;;;;;41.60;22.83;;;-5.40;99.90;;;;;;4994939;28;20510;-67
2022/12/13 02:49:50;;;;;;;28.83;20.97;;;-5.40;99.90;;;;;;4994592;28;20153;-68
2022/12/13 02:52:19;;;;;;;37.87;23.70;;;-5.40;99.90;;;;;;4994910;28;20676;-68
2022/12/13 02:54:46;;;;;;;36.27;21.40;;;-5.40;99.90;;;;;;4994725;28;20538;-68
2022/12/13 02:57:31;;;;;;;34.00;23.13;;;-5.40;99.90;;;;;;4994268;28;20181;-68
2022/12/13 03:00:18;;;;;;;29.90;21.33;;;-5.50;99.90;;;;;;4993947;28;20173;-68
2022/12/13 03:02:50;;;;;;;32.83;20.87;;;-5.50;99.90;;;;;;4993549;28;20213;-67
2022/12/13 03:08:30;;;;;;;28.00;20.33;;;-5.50;99.90;;;;;;4993791;28;20256;-67
2022/12/13 03:14:18;;;;;;;28.87;20.77;;;-5.50;99.90;;;;;;4991308;28;20200;-67
2022/12/13 03:16:49;;;;;;;32.07;21.03;;;-5.50;99.90;;;;;;4992568;28;20196;-68
2022/12/13 03:19:14;;;;;;;32.13;20.73;;;-5.50;99.90;;;;;;4994686;28;20488;-68
2022/12/13 03:21:44;;;;;;;34.47;21.73;;;-5.50;99.90;;;;;;4993575;28;20202;-67
2022/12/13 03:24:10;;;;;;;29.83;21.13;;;-5.50;99.90;;;;;;4993654;28;20192;-67
2022/12/13 03:26:38;;;;;;;31.77;21.70;;;-5.50;99.90;;;;;;4992904;28;20263;-68
2022/12/13 03:29:05;;;;;;;31.83;22.03;;;-5.50;99.90;;;;;;4997171;28;20160;-67
2022/12/13 03:31:30;;;;;;;33.53;23.17;;;-5.60;99.90;;;;;;4996110;28;20208;-67
2022/12/13 03:33:56;;;;;;;38.87;23.07;;;-5.60;99.90;;;;;;4997135;28;20232;-68
2022/12/13 03:36:22;;;;;;;30.30;20.93;;;-5.70;99.90;;;;;;4997196;28;20172;-67
2022/12/13 03:38:51;;;;;;;34.67;21.43;;;-5.60;99.90;;;;;;4997253;28;20678;-68
2022/12/13 03:41:20;;;;;;;29.80;21.20;;;-5.70;99.90;;;;;;4996939;28;20204;-67
2022/12/13 03:43:46;;;;;;;34.03;21.17;;;-5.70;99.90;;;;;;4996829;28;20188;-67
2022/12/13 03:46:12;;;;;;;35.90;21.40;;;-5.60;99.90;;;;;;4995814;28;20555;-68
2022/12/13 03:48:38;;;;;;;33.47;21.63;;;-5.70;99.90;;;;;;4996841;28;20169;-68
2022/12/13 03:51:04;;;;;;;32.30;21.50;;;-5.70;99.90;;;;;;4996836;28;20589;-67
2022/12/13 03:53:30;;;;;;;28.03;22.20;;;-5.70;99.90;;;;;;4996781;28;20200;-67
2022/12/13 03:55:56;;;;;;;29.97;22.43;;;-5.60;99.90;;;;;;4996760;28;20177;-68
2022/12/13 03:58:22;;;;;;;36.47;22.37;;;-5.60;99.90;;;;;;4996777;28;20538;-67
2022/12/13 04:00:48;;;;;;;30.50;22.30;;;-5.60;99.90;;;;;;4995430;28;20184;-66
2022/12/13 04:03:14;;;;;;;34.33;22.30;;;-5.60;99.90;;;;;;4996459;28;20214;-66
2022/12/13 04:05:40;;;;;;;40.23;23.67;;;-5.60;99.90;;;;;;4997093;28;20216;-66
2022/12/13 04:08:06;;;;;;;39.63;23.50;;;-5.70;99.90;;;;;;4995112;28;20230;-66
2022/12/13 04:10:31;;;;;;;32.87;22.60;;;-5.70;99.90;;;;;;4995199;28;20191;-66
2022/12/13 04:15:47;;;;;;;41.60;24.47;;;-5.70;99.90;;;;;;4996610;28;20167;-66
2022/12/13 04:18:17;;;;;;;33.60;23.07;;;-5.70;99.90;;;;;;4996609;28;20157;-66
2022/12/13 04:20:43;;;;;;;33.83;23.60;;;-5.80;99.90;;;;;;4996268;28;20234;-66
2022/12/13 04:23:09;;;;;;;37.37;22.97;;;-5.80;99.90;;;;;;4996063;28;20697;-66
2022/12/13 04:25:35;;;;;;;35.13;23.23;;;-5.80;99.90;;;;;;4997542;28;20172;-66
2022/12/13 04:28:01;;;;;;;27.23;20.83;;;-5.80;99.90;;;;;;4996809;28;20184;-66
2022/12/13 04:30:26;;;;;;;31.10;22.97;;;-5.90;99.90;;;;;;4996112;28;20227;-66
2022/12/13 04:32:52;;;;;;;36.27;22.20;;;-5.90;99.90;;;;;;4994646;28;20691;-66
2022/12/13 04:35:18;;;;;;;32.17;23.27;;;-5.80;99.90;;;;;;4996037;28;20180;-66
2022/12/13 04:37:44;;;;;;;32.17;21.23;;;-5.90;99.90;;;;;;4994385;28;20203;-66
2022/12/13 04:40:10;;;;;;;32.07;21.57;;;-5.90;99.90;;;;;;4995312;28;20181;-65
2022/12/13 04:42:35;;;;;;;33.73;22.77;;;-5.90;99.90;;;;;;4995735;28;20235;-65
2022/12/13 04:45:02;;;;;;;28.27;22.47;;;-6.00;99.90;;;;;;4995660;28;20594;-65
2022/12/13 04:47:27;;;;;;;28.40;20.93;;;-6.10;99.90;;;;;;4996230;28;20180;-65
2022/12/13 04:49:54;;;;;;;32.90;22.50;;;-6.10;99.90;;;;;;4996066;28;20556;-65
2022/12/13 04:52:20;;;;;;;30.97;20.93;;;-6.10;99.90;;;;;;4995748;28;20196;-65
2022/12/13 04:54:45;;;;;;;35.20;21.47;;;-6.10;99.90;;;;;;4994464;28;20658;-65
2022/12/13 04:57:11;;;;;;;31.00;20.73;;;-6.20;99.90;;;;;;4995611;28;20183;-65
2022/12/13 04:59:38;;;;;;;31.63;22.50;;;-6.30;99.90;;;;;;4995481;28;20223;-66
2022/12/13 05:02:05;;;;;;;28.67;20.70;;;-6.30;99.90;;;;;;4995759;28;20263;-65
2022/12/13 05:04:30;;;;;;;33.17;21.97;;;-6.40;99.90;;;;;;4995801;28;20599;-65
2022/12/13 05:06:56;;;;;;;27.10;21.00;;;-6.30;99.90;;;;;;4994275;28;20207;-66
2022/12/13 05:09:23;;;;;;;31.27;22.27;;;-6.30;99.90;;;;;;4995669;28;20184;-66
2022/12/13 05:11:49;;;;;;;33.03;22.03;;;-6.30;99.90;;;;;;4995313;28;20168;-65
2022/12/13 05:14:15;;;;;;;32.97;20.93;;;-6.30;99.90;;;;;;4995055;28;20177;-66
2022/12/13 05:16:40;;;;;;;30.40;21.07;;;-6.30;99.90;;;;;;4995437;28;20199;-65
2022/12/13 05:19:06;;;;;;;32.60;22.47;;;-6.20;99.90;;;;;;4995187;28;20273;-65
2022/12/13 05:21:33;;;;;;;37.27;23.03;;;-6.10;99.90;;;;;;4995040;28;20662;-65
2022/12/13 05:24:01;;;;;;;27.30;20.57;;;-6.10;99.90;;;;;;4994878;28;20188;-65
2022/12/13 05:26:27;;;;;;;33.13;22.50;;;-6.10;99.90;;;;;;4994691;28;20192;-65
2022/12/13 05:28:57;;;;;;;34.63;22.53;;;-6.20;99.90;;;;;;4994873;28;20177;-66
2022/12/13 05:31:23;;;;;;;29.33;20.97;;;-6.30;99.90;;;;;;4994717;28;20181;-65
2022/12/13 05:33:49;;;;;;;30.97;21.57;;;-6.40;99.90;;;;;;4994797;28;20196;-65
2022/12/13 05:36:15;;;;;;;25.57;20.27;;;-6.40;99.90;;;;;;4995229;28;20219;-65
2022/12/13 05:38:40;;;;;;;34.10;21.03;;;-6.40;99.90;;;;;;4995121;28;20650;-65
2022/12/13 05:41:09;;;;;;;33.00;22.00;;;-6.30;99.90;;;;;;4993253;28;20777;-65
2022/12/13 05:43:35;;;;;;;29.20;21.63;;;-6.30;99.90;;;;;;4994430;28;20192;-65
2022/12/13 05:46:00;;;;;;;40.33;24.60;;;-6.20;99.90;;;;;;4993256;28;20626;-65
2022/12/13 05:48:26;;;;;;;32.80;22.27;;;-6.20;99.90;;;;;;4994649;28;20539;-65
2022/12/13 05:50:52;;;;;;;29.63;22.13;;;-6.20;99.90;;;;;;4994346;28;20198;-65
2022/12/13 05:53:18;;;;;;;33.50;22.87;;;-6.20;99.90;;;;;;4994253;28;20192;-65
2022/12/13 05:55:43;;;;;;;29.20;21.40;;;-6.10;99.90;;;;;;4994306;28;20187;-65
2022/12/13 05:58:11;;;;;;;29.03;20.47;;;-6.20;99.90;;;;;;4992799;28;20235;-66
2022/12/13 06:00:38;;;;;;;33.33;21.07;;;-6.20;99.90;;;;;;4994238;28;20179;-65
2022/12/13 06:03:03;;;;;;;33.27;21.57;;;-6.20;99.90;;;;;;4993970;28;20210;-65
2022/12/13 06:05:30;;;;;;;31.67;20.47;;;-6.30;99.90;;;;;;4994078;28;20656;-65
2022/12/13 06:07:56;;;;;;;30.37;21.63;;;-6.40;99.90;;;;;;4994025;28;20231;-65
2022/12/13 06:10:22;;;;;;;27.83;20.97;;;-6.50;99.90;;;;;;4994184;28;20235;-65
2022/12/13 06:12:48;;;;;;;32.87;22.67;;;-6.50;99.90;;;;;;4994044;28;20196;-65
2022/12/13 06:15:13;;;;;;;30.07;20.67;;;-6.50;99.90;;;;;;4994032;28;20189;-65
2022/12/13 06:17:39;;;;;;;31.00;22.67;;;-6.50;99.90;;;;;;4992675;28;20267;-66
2022/12/13 06:20:06;;;;;;;30.00;21.60;;;-6.50;99.90;;;;;;4993956;28;20176;-65
2022/12/13 06:22:32;;;;;;;30.90;21.47;;;-6.50;99.90;;;;;;4993803;28;20557;-65
2022/12/13 06:24:58;;;;;;;31.47;21.70;;;-6.50;99.90;;;;;;4993763;28;20199;-65
2022/12/13 06:27:23;;;;;;;31.60;20.97;;;-6.50;99.90;;;;;;4994326;28;20169;-66
2022/12/13 06:29:49;;;;;;;34.60;22.03;;;-6.50;99.90;;;;;;4993881;28;20204;-66
2022/12/13 06:32:15;;;;;;;42.70;23.27;;;-6.60;99.90;;;;;;4993805;28;20200;-66
2022/12/13 06:34:41;;;;;;;31.50;22.13;;;-6.60;99.90;;;;;;4993843;28;20191;-66
2022/12/13 06:37:10;;;;;;;34.17;22.83;;;-6.60;99.90;;;;;;4993820;28;20180;-65
2022/12/13 06:39:36;;;;;;;30.27;21.83;;;-6.60;99.90;;;;;;4993692;28;20184;-65
2022/12/13 06:42:07;;;;;;;35.67;23.27;;;-6.60;99.90;;;;;;4993555;28;20216;-65
2022/12/13 06:44:34;;;;;;;36.30;26.47;;;-6.60;99.90;;;;;;4993669;28;20168;-66
2022/12/13 06:47:00;;;;;;;36.83;24.13;;;-6.70;99.90;;;;;;4993869;28;20282;-65
2022/12/13 06:49:27;;;;;;;36.27;23.27;;;-6.80;99.90;;;;;;4992334;28;20176;-66
2022/12/13 06:51:53;;;;;;;35.17;24.87;;;-6.80;99.90;;;;;;4993841;28;20700;-64
2022/12/13 06:54:19;;;;;;;31.57;22.60;;;-6.70;99.90;;;;;;4993570;28;20180;-65
2022/12/13 06:56:44;;;;;;;39.57;23.73;;;-6.70;99.90;;;;;;4993574;28;20264;-64
2022/12/13 06:59:11;;;;;;;31.47;22.77;;;-6.60;99.90;;;;;;4993707;28;20584;-64
2022/12/13 07:01:37;;;;;;;32.30;23.10;;;-6.60;99.90;;;;;;4992473;28;20681;-64
2022/12/13 07:04:08;;;;;;;40.00;25.13;;;-6.50;99.90;;;;;;4997245;28;20227;-64
2022/12/13 07:06:34;;;;;;;34.90;24.13;;;-6.50;99.90;;;;;;4995968;28;20558;-64
2022/12/13 07:08:59;;;;;;;33.47;23.27;;;-6.50;99.90;;;;;;4995872;28;20263;-65
2022/12/13 07:11:28;;;;;;;30.17;22.90;;;-6.50;99.90;;;;;;4997638;28;20168;-65
2022/12/13 07:13:54;;;;;;;32.77;24.17;;;-6.50;99.90;;;;;;4996950;28;20196;-66
2022/12/13 07:16:21;;;;;;;34.03;24.03;;;-6.50;99.90;;;;;;4997130;28;20545;-66
2022/12/13 07:18:47;;;;;;;33.40;24.00;;;-6.50;99.90;;;;;;4996964;28;20177;-66
2022/12/13 07:21:14;;;;;;;37.60;26.90;;;-6.50;99.90;;;;;;4996825;28;20235;-66
2022/12/13 07:23:40;;;;;;;37.23;24.90;;;-6.50;99.90;;;;;;5000073;28;20310;-65
2022/12/13 07:26:07;;;;;;;33.57;24.10;;;-6.50;99.90;;;;;;4997072;28;20199;-66
2022/12/13 07:28:36;;;;;;;37.33;25.60;;;-6.50;99.90;;;;;;4995548;28;20268;-66
2022/12/13 07:31:05;;;;;;;31.27;23.50;;;-6.50;99.90;;;;;;5011996;28;20184;-65
2022/12/13 07:33:31;;;;;;;30.67;23.47;;;-6.50;99.90;;;;;;4996914;28;20196;-66
2022/12/13 07:36:06;;;;;;;30.80;22.77;;;-6.50;99.90;;;;;;4996907;28;20239;-66
2022/12/13 07:38:35;;;;;;;40.83;24.27;;;-6.60;99.90;;;;;;5011899;28;20172;-66
2022/12/13 07:41:02;;;;;;;32.47;21.77;;;-6.60;99.90;;;;;;5013039;28;20266;-66
2022/12/13 07:43:30;;;;;;;40.47;24.93;;;-6.70;99.90;;;;;;5016174;28;20223;-66
2022/12/13 07:46:01;;;;;;;37.60;26.83;;;-6.70;99.90;;;;;;5016201;28;20179;-66
2022/12/13 07:48:27;;;;;;;40.53;28.23;;;-6.70;99.90;;;;;;5031290;28;20613;-66
2022/12/13 07:50:59;;;;;;;46.00;26.07;;;-6.60;99.90;;;;;;5031377;28;20250;-66
2022/12/13 07:53:24;;;;;;;39.50;26.47;;;-6.60;99.90;;;;;;5016104;28;20564;-66
2022/12/13 07:55:50;;;;;;;41.37;26.13;;;-6.60;99.90;;;;;;5016045;28;20255;-66
2022/12/13 07:58:16;;;;;;;38.20;26.40;;;-6.60;99.90;;;;;;5016483;28;20246;-66
2022/12/13 08:00:44;;;;;;;35.47;24.30;;;-6.60;99.90;;;;;;5031045;28;20176;-66
2022/12/13 08:03:10;;;;;;;33.80;24.13;;;-6.60;99.90;;;;;;5016302;28;20208;-66
2022/12/13 08:05:36;;;;;;;30.93;22.63;;;-6.60;99.90;;;;;;5015925;28;20174;-66
2022/12/13 08:08:05;;;;;;;34.00;23.27;;;-6.50;99.90;;;;;;5015940;28;20171;-66
2022/12/13 08:10:31;;;;;;;33.37;24.27;;;-6.30;99.90;;;;;;5015756;28;20180;-66
2022/12/13 08:12:58;;;;;;;48.00;25.70;;;-6.30;99.90;;;;;;5014902;28;20210;-66
2022/12/13 08:15:24;;;;;;;42.47;25.30;;;-6.20;99.90;;;;;;5030313;28;20191;-66
2022/12/13 08:17:50;;;;;;;36.33;26.70;;;-6.10;99.90;;;;;;5031235;28;20199;-66
2022/12/13 08:20:16;;;;;;;46.30;29.07;;;-6.10;99.90;;;;;;5016023;28;20160;-66
2022/12/13 08:22:42;;;;;;;42.07;27.90;;;-6.10;99.90;;;;;;5031037;28;20208;-67
2022/12/13 08:25:08;;;;;;;45.87;28.40;;;-6.10;99.90;;;;;;5017474;28;20187;-66
2022/12/13 08:27:34;;;;;;;32.20;23.73;;;-6.10;99.90;;;;;;5014266;28;20180;-65
2022/12/13 08:30:00;;;;;;;32.57;24.17;;;-6.00;99.90;;;;;;5015363;28;20195;-66
2022/12/13 08:32:25;;;;;;;34.30;22.63;;;-6.00;99.90;;;;;;5015341;28;20681;-66
2022/12/13 08:34:51;;;;;;;34.53;22.20;;;-5.90;99.90;;;;;;5015462;28;20204;-66
2022/12/13 08:37:17;;;;;;;32.93;22.00;;;-5.80;99.90;;;;;;5024078;28;20188;-66
2022/12/13 08:39:46;;;;;;;33.40;22.83;;;-5.70;99.90;;;;;;5025603;28;20191;-66
2022/12/13 08:42:14;;;;;;;40.77;25.13;;;-5.60;99.90;;;;;;5024008;28;20212;-66
2022/12/13 08:44:40;;;;;;;37.57;23.73;;;-5.50;99.90;;;;;;5016416;28;20200;-66
2022/12/13 08:47:06;;;;;;;45.13;26.70;;;-5.40;99.90;;;;;;5015631;28;20222;-66
2022/12/13 08:49:32;;;;;;;39.77;26.67;;;-5.40;99.90;;;;;;5015434;28;20672;-66
2022/12/13 08:51:58;;;;;;;48.00;27.43;;;-5.30;99.90;;;;;;5015189;28;20203;-66
2022/12/13 08:54:24;;;;;;;45.60;27.17;;;-5.20;99.90;;;;;;5015374;28;20230;-66
2022/12/13 08:56:50;;;;;;;42.33;27.23;;;-5.20;99.90;;;;;;4997429;28;20184;-65
2022/12/13 08:59:17;;;;;;;48.83;27.87;;;-5.10;99.90;;;;;;5013579;28;20275;-66
2022/12/13 09:01:43;;;;;;;47.67;29.23;;;-5.10;99.90;;;;;;5014595;28;20679;-66
2022/12/13 09:04:08;;;;;;;38.70;25.80;;;-5.10;99.90;;;;;;5015228;28;20568;-66
2022/12/13 09:06:34;;;;;;;40.27;26.63;;;-5.10;99.90;;;;;;5014988;28;20160;-66
2022/12/13 09:09:00;;;;;;;38.67;25.80;;;-5.10;99.90;;;;;;5014862;28;20254;-66
2022/12/13 09:11:26;;;;;;;41.43;26.77;;;-5.00;99.90;;;;;;5013203;28;20190;-66
2022/12/13 09:13:51;;;;;;;44.27;27.17;;;-5.00;99.90;;;;;;5014410;28;20275;-66
2022/12/13 09:16:22;;;;;;;38.47;25.47;;;-4.90;99.90;;;;;;5013109;28;20680;-66
2022/12/13 09:18:49;;;;;;;38.70;24.80;;;-4.90;99.90;;;;;;5013212;28;20180;-66
2022/12/13 09:21:15;;;;;;;36.83;24.40;;;-4.90;99.90;;;;;;5014386;28;20168;-66
2022/12/13 09:23:41;;;;;;;35.13;24.60;;;-4.80;99.90;;;;;;5017772;28;20691;-66
2022/12/13 09:26:09;;;;;;;42.07;24.50;;;-4.80;99.90;;;;;;5013982;28;20176;-66
2022/12/13 09:28:39;;;;;;;39.17;24.90;;;-4.80;99.90;;;;;;5014932;28;20503;-66
2022/12/13 09:31:16;;;;;;;38.93;25.13;;;-4.70;99.90;;;;;;5014464;28;20175;-66
2022/12/13 09:33:42;;;;;;;29.73;23.10;;;-4.60;99.90;;;;;;5014280;28;20187;-66
2022/12/13 09:36:12;;;;;;;37.80;23.67;;;-4.50;99.90;;;;;;5029511;28;20644;-66
2022/12/13 09:38:37;;;;;;;40.73;25.37;;;-4.30;99.90;;;;;;5014196;28;20180;-66
2022/12/13 09:41:29;;;;;;;39.47;25.97;;;-4.20;99.90;;;;;;5014131;28;20262;-66
2022/12/13 09:44:16;;;;;;;40.07;25.97;;;-4.00;99.90;;;;;;5029304;28;20235;-66
2022/12/13 09:46:45;;;;;;;36.87;24.07;;;-3.90;99.90;;;;;;5012877;28;20525;-66
2022/12/13 09:49:22;;;;;;;38.83;25.73;;;-3.70;99.90;;;;;;5014066;28;20183;-66
2022/12/13 09:51:53;;;;;;;35.20;25.70;;;-3.60;99.90;;;;;;5029238;28;20172;-66
2022/12/13 09:54:22;;;;;;;33.87;23.43;;;-3.50;99.90;;;;;;5014253;28;20573;-66
2022/12/13 09:56:51;;;;;;;41.10;25.83;;;-3.40;99.90;;;;;;5029051;28;20179;-66
2022/12/13 09:59:30;;;;;;;33.57;24.13;;;-3.30;99.90;;;;;;5012696;28;20286;-67
2022/12/13 10:02:01;;;;;;;39.40;25.10;;;-3.20;99.90;;;;;;5028843;28;20200;-66
2022/12/13 10:04:28;;;;;;;42.20;26.43;;;-3.10;99.90;;;;;;5013918;28;20218;-66
2022/12/13 10:06:54;;;;;;;40.17;26.63;;;-3.00;99.90;;;;;;5013740;28;20175;-66
2022/12/13 10:09:21;;;;;;;39.70;25.47;;;-2.90;99.90;;;;;;5013632;28;20555;-67
2022/12/13 10:11:49;;;;;;;39.67;25.20;;;-2.80;99.90;;;;;;5014018;28;20287;-68
2022/12/13 10:14:21;;;;;;;35.17;24.77;;;-2.70;99.90;;;;;;5013856;28;20179;-69
2022/12/13 10:16:56;;;;;;;41.97;25.73;;;-2.60;99.90;;;;;;5028839;28;20184;-69
2022/12/13 10:19:38;;;;;;;42.00;25.93;;;-2.50;99.90;;;;;;5014080;28;20565;-69
2022/12/13 10:22:10;;;;;;;33.90;24.97;;;-2.40;99.90;;;;;;5028705;28;20215;-69
2022/12/13 10:24:59;;;;;;;36.80;25.47;;;-2.30;99.90;;;;;;5013546;28;20668;-69
2022/12/13 10:27:35;;;;;;;35.90;24.97;;;-2.10;99.90;;;;;;5012176;28;20300;-69
2022/12/13 10:30:23;;;;;;;32.57;24.40;;;-2.00;99.90;;;;;;5013452;28;20235;-69
2022/12/13 10:33:01;;;;;;;31.27;22.10;;;-1.90;99.90;;;;;;5013647;28;20278;-69
2022/12/13 10:35:28;;;;;;;34.50;23.30;;;-1.80;99.90;;;;;;5013477;28;20171;-69
2022/12/13 10:37:56;;;;;;;31.30;22.33;;;-1.70;99.90;;;;;;5012698;28;20710;-69
2022/12/13 10:40:47;;;;;;;36.87;22.80;;;-1.50;99.90;;;;;;5013418;28;20180;-70
2022/12/13 10:43:19;;;;;;;30.53;22.53;;;-1.30;99.90;;;;;;5011992;28;20211;-70
2022/12/13 10:45:56;;;;;;;34.73;23.73;;;-1.10;99.90;;;;;;5013253;28;20222;-69
2022/12/13 10:48:31;;;;;;;38.67;23.87;;;-0.90;99.90;;;;;;5012020;28;20252;-70
2022/12/13 10:51:07;;;;;;;38.13;24.57;;;-0.80;99.90;;;;;;5013378;28;20214;-70
2022/12/13 10:53:40;;;;;;;34.60;24.03;;;-0.60;99.90;;;;;;5013410;28;20198;-70
2022/12/13 10:56:07;;;;;;;35.43;24.17;;;-0.60;99.90;;;;;;5013930;28;20152;-70
2022/12/13 10:58:45;;;;;;;30.83;21.57;;;-0.40;99.90;;;;;;5013265;28;20518;-70
2022/12/13 11:01:22;;;;;;;30.80;21.87;;;-0.30;99.90;;;;;;5013531;28;20159;-70
2022/12/13 11:04:00;;;;;;;31.60;23.80;;;-0.10;99.90;;;;;;5013227;28;20656;-70
2022/12/13 11:06:27;;;;;;;32.17;22.93;;;0.10;99.90;;;;;;5012137;28;20179;-70
2022/12/13 11:08:54;;;;;;;32.63;23.27;;;0.20;99.90;;;;;;5012059;28;20664;-70
2022/12/13 11:11:29;;;;;;;31.47;22.67;;;0.30;99.90;;;;;;5013094;28;20661;-70
2022/12/13 11:14:02;;;;;;;29.60;22.73;;;0.30;99.90;;;;;;5013289;28;20555;-70
2022/12/13 11:16:38;;;;;;;31.87;23.10;;;0.40;99.90;;;;;;5013748;28;20153;-70
2022/12/13 11:19:15;;;;;;;30.03;22.17;;;0.30;99.90;;;;;;5013579;28;20612;-70
2022/12/13 11:21:47;;;;;;;28.43;21.80;;;0.20;99.90;;;;;;5013070;28;20194;-71
2022/12/13 11:24:22;;;;;;;29.27;21.73;;;0.10;99.90;;;;;;5021005;28;20196;-71
2022/12/13 11:26:57;;;;;;;31.73;22.83;;;0.10;99.90;;;;;;5013312;28;20160;-71
2022/12/13 11:29:47;;;;;;;27.10;21.30;;;0.10;99.90;;;;;;5028162;28;20187;-71
2022/12/13 11:32:51;;;;;;;27.53;21.53;;;0.10;99.90;;;;;;5013169;28;20199;-71
2022/12/13 11:35:51;;;;;;;33.30;22.43;;;0.20;99.90;;;;;;5013167;28;20616;-71
2022/12/13 11:38:57;;;;;;;25.63;21.37;;;0.20;99.90;;;;;;4983075;28;20207;-71
2022/12/13 11:41:31;;;;;;;32.83;21.70;;;0.30;99.90;;;;;;5028261;28;20191;-70
2022/12/13 11:44:33;;;;;;;29.83;22.07;;;0.40;99.90;;;;;;5028088;28;20234;-71
2022/12/13 11:47:00;;;;;;;27.67;20.60;;;0.50;99.90;;;;;;5013716;28;20243;-70
2022/12/13 11:49:39;;;;;;;30.93;22.13;;;0.60;99.90;;;;;;5017056;28;20240;-71
2022/12/13 11:52:14;;;;;;;29.03;21.00;;;0.60;99.90;;;;;;5017234;28;20195;-71
2022/12/13 11:54:48;;;;;;;32.23;22.20;;;0.60;99.90;;;;;;5032250;28;20184;-72
2022/12/13 11:57:48;;;;;;;30.83;21.00;;;0.60;99.90;;;;;;5031686;28;20187;-71
2022/12/13 12:00:32;;;;;;;31.20;21.63;;;0.50;99.90;;;;;;5031513;28;20180;-71
2022/12/13 12:03:19;;;;;;;26.47;20.60;;;0.60;99.90;;;;;;5016229;28;20216;-71
2022/12/13 12:05:56;;;;;;;29.17;20.90;;;0.80;99.90;;;;;;5031776;28;20202;-71
2022/12/13 12:08:45;;;;;;;30.00;21.43;;;0.80;99.90;;;;;;5016723;28;20238;-71
2022/12/13 12:11:33;;;;;;;29.73;20.53;;;0.70;99.90;;;;;;5031781;28;20234;-71
2022/12/13 12:14:21;;;;;;;27.10;19.97;;;0.60;99.90;;;;;;5014784;28;20200;-70
2022/12/13 12:16:58;;;;;;;27.33;20.13;;;0.50;99.90;;;;;;5016565;28;20160;-71
2022/12/13 12:19:35;;;;;;;27.60;21.00;;;0.40;99.90;;;;;;5016516;28;20195;-71
2022/12/13 12:22:26;;;;;;;29.07;20.47;;;0.30;99.90;;;;;;5016709;28;20622;-70
2022/12/13 12:25:16;;;;;;;25.53;19.80;;;0.10;99.90;;;;;;5031863;28;20286;-71
2022/12/13 12:28:06;;;;;;;27.97;21.07;;;0.10;99.90;;;;;;5031121;28;20176;-70
2022/12/13 12:30:42;;;;;;;27.63;20.67;;;0.10;99.90;;;;;;5031121;28;20185;-71
2022/12/13 12:33:29;;;;;;;29.80;22.00;;;0.20;99.90;;;;;;5015882;28;20236;-71
2022/12/13 12:36:25;;;;;;;29.60;21.83;;;0.30;99.90;;;;;;5016035;28;20209;-71
2022/12/13 12:39:01;;;;;;;27.40;20.63;;;0.40;99.90;;;;;;5031162;28;20180;-70
2022/12/13 12:41:34;;;;;;;28.47;20.70;;;0.40;99.90;;;;;;5015803;28;20249;-71
2022/12/13 12:44:03;;;;;;;23.83;19.67;;;0.30;99.90;;;;;;5015733;28;20295;-71
2022/12/13 12:46:57;;;;;;;28.37;21.20;;;0.30;99.90;;;;;;5031110;28;20191;-70
2022/12/13 12:50:01;;;;;;;32.10;21.40;;;0.30;99.90;;;;;;5016125;28;20592;-70
2022/12/13 12:52:33;;;;;;;24.00;18.77;;;0.20;99.90;;;;;;5015929;28;20271;-71
2022/12/13 12:55:29;;;;;;;24.37;19.63;;;0.20;99.90;;;;;;5030739;28;20176;-71